createdAt,value
2018-07-25T00:00:45.641Z,18.80
2018-07-25T00:03:14.083Z,19.00
2018-07-25T00:05:42.425Z,18.90
2018-07-25T00:08:10.717Z,18.80
2018-07-25T00:10:45.903Z,18.80
2018-07-25T00:13:15.125Z,19.00
2018-07-25T00:15:44.054Z,18.90
2018-07-25T00:18:15.858Z,19.00
2018-07-25T00:23:23.122Z,18.90
2018-07-25T00:28:26.685Z,18.80
2018-07-25T00:31:08.896Z,18.80
2018-07-25T00:36:20.529Z,18.70
2018-07-25T00:46:33.029Z,18.50
2018-07-25T00:49:01.773Z,18.40
2018-07-25T00:54:01.756Z,18.50
2018-07-25T00:56:30.324Z,18.40
2018-07-25T00:59:00.419Z,18.40
2018-07-25T01:01:30.439Z,18.40
2018-07-25T01:03:58.983Z,18.30
2018-07-25T01:06:30.498Z,18.30
2018-07-25T01:08:59.252Z,18.30
2018-07-25T01:11:37.994Z,18.30
2018-07-25T01:16:43.191Z,18.30
2018-07-25T01:19:22.700Z,18.30
2018-07-25T01:21:54.416Z,18.30
2018-07-25T01:24:33.110Z,18.20
2018-07-25T01:27:12.258Z,18.20
2018-07-25T01:29:46.959Z,18.20
2018-07-25T01:34:43.712Z,18.20
2018-07-25T01:37:15.343Z,18.20
2018-07-25T01:39:43.798Z,18.20
2018-07-25T01:42:12.164Z,18.10
2018-07-25T01:44:42.022Z,18.00
2018-07-25T01:47:10.370Z,17.90
2018-07-25T01:49:38.529Z,17.90
2018-07-25T01:52:09.132Z,19.00
2018-07-25T01:54:40.471Z,17.80
2018-07-25T01:57:09.010Z,17.80
2018-07-25T01:59:41.759Z,18.00
2018-07-25T02:02:12.779Z,18.00
2018-07-25T02:04:41.114Z,18.00
2018-07-25T02:07:09.407Z,17.90
2018-07-25T02:09:38.228Z,18.10
2018-07-25T02:12:08.004Z,18.00
2018-07-25T02:14:40.989Z,17.90
2018-07-25T02:22:56.531Z,17.60
2018-07-25T02:25:25.245Z,17.40
2018-07-25T02:30:30.328Z,17.40
2018-07-25T02:32:58.707Z,17.30
2018-07-25T02:35:28.345Z,17.30
2018-07-25T02:45:54.095Z,17.20
2018-07-25T02:48:28.156Z,17.20
2018-07-25T02:50:56.580Z,17.10
2018-07-25T02:58:39.894Z,17.00
2018-07-25T03:03:44.927Z,16.90
2018-07-25T03:06:16.807Z,17.00
2018-07-25T03:08:45.234Z,16.90
2018-07-25T03:11:17.851Z,17.00
2018-07-25T03:13:53.553Z,16.90
2018-07-25T03:16:26.934Z,16.90
2018-07-25T03:19:04.891Z,16.80
2018-07-25T03:21:34.435Z,16.60
2018-07-25T03:24:03.036Z,16.60
2018-07-25T03:26:38.911Z,16.70
2018-07-25T03:29:09.127Z,16.80
2018-07-25T03:31:40.885Z,16.90
2018-07-25T03:34:13.622Z,17.00
2018-07-25T03:36:44.858Z,16.90
2018-07-25T03:39:18.004Z,18.80
2018-07-25T03:41:55.666Z,16.80
2018-07-25T03:49:37.247Z,16.70
2018-07-25T03:54:43.584Z,16.70
2018-07-25T03:59:45.014Z,16.50
2018-07-25T04:02:13.291Z,16.60
2018-07-25T04:04:44.442Z,16.50
2018-07-25T04:07:13.060Z,16.40
2018-07-25T04:09:41.583Z,16.40
2018-07-25T04:12:10.056Z,16.60
2018-07-25T04:14:39.701Z,16.50
2018-07-25T04:17:08.228Z,16.50
2018-07-25T04:19:36.733Z,16.60
2018-07-25T04:24:33.417Z,16.50
2018-07-25T04:32:05.378Z,16.30
2018-07-25T04:34:37.144Z,16.20
2018-07-25T04:37:10.066Z,16.30
2018-07-25T04:44:47.881Z,16.50
2018-07-25T04:47:19.021Z,16.50
2018-07-25T04:49:50.041Z,16.60
2018-07-25T04:52:24.747Z,16.80
2018-07-25T04:54:54.311Z,16.90
2018-07-25T04:57:23.385Z,17.00
2018-07-25T04:59:51.803Z,17.10
2018-07-25T05:04:48.940Z,17.10
2018-07-25T05:07:17.481Z,17.20
2018-07-25T05:09:48.384Z,17.20
2018-07-25T05:12:28.650Z,17.30
2018-07-25T05:14:58.841Z,17.30
2018-07-25T05:17:32.349Z,17.30
2018-07-25T05:20:04.103Z,17.50
2018-07-25T05:22:33.412Z,17.60
2018-07-25T05:25:08.393Z,17.80
2018-07-25T05:27:39.742Z,18.00
2018-07-25T05:30:08.192Z,18.30
2018-07-25T05:32:39.561Z,18.50
2018-07-25T05:35:07.822Z,18.80
2018-07-25T05:37:36.053Z,18.80
2018-07-25T05:40:04.972Z,19.30
2018-07-25T05:42:36.698Z,19.60
2018-07-25T05:45:09.698Z,20.30
2018-07-25T05:47:41.146Z,20.10
2018-07-25T05:50:14.492Z,20.20
2018-07-25T05:52:44.951Z,20.30
2018-07-25T05:55:13.344Z,20.40
2018-07-25T05:57:46.850Z,20.60
2018-07-25T06:00:17.707Z,20.90
2018-07-25T06:02:46.146Z,21.10
2018-07-25T06:17:48.602Z,22.30
2018-07-25T06:20:18.927Z,22.40
2018-07-25T06:22:48.975Z,22.70
2018-07-25T06:25:17.275Z,23.10
2018-07-25T06:30:15.644Z,23.30
2018-07-25T06:32:44.033Z,23.60
2018-07-25T06:35:12.463Z,23.70
2018-07-25T06:37:40.831Z,23.70
2018-07-25T06:40:09.441Z,23.90
2018-07-25T06:42:37.779Z,23.90
2018-07-25T06:45:06.513Z,24.10
2018-07-25T06:50:03.083Z,24.40
2018-07-25T06:52:33.172Z,23.50
2018-07-25T06:55:01.476Z,24.60
2018-07-25T06:57:29.961Z,24.80
2018-07-25T06:59:59.140Z,25.10
2018-07-25T07:02:27.604Z,25.10
2018-07-25T07:04:56.078Z,25.50
2018-07-25T07:07:24.469Z,25.60
2018-07-25T07:09:52.803Z,25.40
2018-07-25T07:12:21.421Z,25.60
2018-07-25T07:19:47.267Z,25.90
2018-07-25T07:22:15.926Z,26.00
2018-07-25T07:24:47.987Z,26.20
2018-07-25T07:27:16.557Z,26.20
2018-07-25T07:32:14.565Z,26.70
2018-07-25T07:34:43.147Z,26.70
2018-07-25T07:37:13.057Z,27.10
2018-07-25T07:39:46.360Z,27.20
2018-07-25T07:42:14.702Z,27.20
2018-07-25T07:44:43.296Z,27.30
2018-07-25T07:47:13.384Z,27.50
2018-07-25T07:49:44.882Z,27.60
2018-07-25T07:52:15.823Z,27.50
2018-07-25T07:54:45.082Z,27.80
2018-07-25T07:57:19.172Z,27.70
2018-07-25T07:59:52.937Z,27.90
2018-07-25T08:02:27.194Z,27.90
2018-07-25T08:04:55.523Z,28.00
2018-07-25T08:07:23.770Z,28.10
2018-07-25T08:09:52.387Z,28.10
2018-07-25T08:14:53.225Z,28.60
2018-07-25T08:17:23.564Z,28.60
2018-07-25T08:24:51.631Z,28.90
2018-07-25T08:27:26.548Z,29.10
2018-07-25T08:32:29.210Z,29.40
2018-07-25T08:34:58.654Z,29.50
2018-07-25T08:39:56.703Z,29.80
2018-07-25T08:42:25.434Z,29.70
2018-07-25T08:44:54.022Z,29.60
2018-07-25T08:47:23.302Z,29.50
2018-07-25T08:49:54.240Z,29.70
2018-07-25T08:52:22.897Z,30.00
2018-07-25T08:54:52.067Z,30.10
2018-07-25T08:57:20.648Z,30.10
2018-07-25T08:59:49.080Z,30.00
2018-07-25T09:02:17.649Z,30.10
2018-07-25T09:04:46.218Z,30.00
2018-07-25T09:07:14.776Z,30.30
2018-07-25T09:09:44.209Z,30.30
2018-07-25T09:12:12.606Z,30.40
2018-07-25T09:14:41.113Z,29.90
2018-07-25T09:17:09.561Z,30.40
2018-07-25T09:19:38.092Z,30.50
2018-07-25T09:24:34.832Z,30.70
2018-07-25T09:27:03.387Z,30.80
2018-07-25T09:29:31.710Z,30.90
2018-07-25T09:32:01.566Z,31.10
2018-07-25T09:34:29.901Z,30.90
2018-07-25T09:36:58.417Z,30.70
2018-07-25T09:39:26.708Z,30.60
2018-07-25T09:41:56.030Z,30.60
2018-07-25T09:49:22.030Z,31.10
2018-07-25T09:51:51.246Z,31.30
2018-07-25T09:54:23.248Z,31.20
2018-07-25T09:57:01.586Z,31.10
2018-07-25T09:59:30.018Z,31.10
2018-07-25T10:01:58.819Z,31.00
2018-07-25T10:04:32.941Z,31.00
2018-07-25T10:07:06.101Z,31.10
2018-07-25T10:09:37.495Z,31.10
2018-07-25T10:12:13.118Z,31.10
2018-07-25T10:14:43.515Z,31.10
2018-07-25T10:17:12.676Z,31.20
2018-07-25T10:19:42.779Z,31.20
2018-07-25T10:22:11.186Z,31.20
2018-07-25T10:24:39.737Z,31.10
2018-07-25T10:27:10.166Z,31.20
2018-07-25T10:29:38.509Z,31.20
2018-07-25T10:32:07.815Z,31.20
2018-07-25T10:37:04.913Z,31.20
2018-07-25T10:39:34.710Z,31.10
2018-07-25T10:42:03.669Z,31.00
2018-07-25T10:44:34.471Z,31.00
2018-07-25T10:47:03.125Z,30.80
2018-07-25T10:49:33.711Z,30.70
2018-07-25T10:52:02.293Z,30.90
2018-07-25T10:57:00.093Z,31.20
2018-07-25T10:59:28.590Z,31.20
2018-07-25T11:01:57.232Z,31.10
2018-07-25T11:04:25.799Z,31.20
2018-07-25T11:06:58.672Z,31.40
2018-07-25T11:09:27.380Z,31.40
2018-07-25T11:12:06.004Z,31.40
2018-07-25T11:14:40.094Z,31.30
2018-07-25T11:17:13.712Z,31.40
2018-07-25T11:19:46.001Z,31.50
2018-07-25T11:22:32.030Z,31.50
2018-07-25T11:25:06.479Z,31.40
2018-07-25T11:27:46.476Z,31.60
2018-07-25T11:30:15.673Z,31.60
2018-07-25T11:33:14.244Z,31.70
2018-07-25T11:35:44.480Z,31.70
2018-07-25T11:38:15.237Z,31.70
2018-07-25T11:43:14.182Z,31.60
2018-07-25T11:45:49.223Z,31.60
2018-07-25T11:48:23.296Z,31.50
2018-07-25T11:51:00.258Z,31.50
2018-07-25T11:53:32.033Z,31.50
2018-07-25T11:56:04.684Z,31.50
2018-07-25T11:58:33.456Z,31.60
2018-07-25T12:01:04.068Z,31.60
2018-07-25T12:03:32.531Z,31.60
2018-07-25T12:06:01.007Z,31.70
2018-07-25T12:08:32.155Z,31.80
2018-07-25T12:11:01.033Z,31.80
2018-07-25T12:13:29.426Z,31.80
2018-07-25T12:15:57.871Z,31.60
2018-07-25T12:18:26.242Z,31.70
2018-07-25T12:20:54.758Z,31.60
2018-07-25T12:23:23.178Z,31.70
2018-07-25T12:25:53.279Z,31.70
2018-07-25T12:28:21.984Z,31.50
2018-07-25T12:30:50.457Z,31.60
2018-07-25T12:33:18.632Z,31.50
2018-07-25T12:35:47.104Z,31.50
2018-07-25T12:38:15.434Z,31.50
2018-07-25T12:40:45.664Z,31.50
2018-07-25T12:43:15.700Z,31.50
2018-07-25T12:45:46.901Z,31.40
2018-07-25T12:48:16.357Z,31.50
2018-07-25T12:50:44.613Z,31.30
2018-07-25T12:53:13.012Z,31.30
2018-07-25T12:55:41.422Z,31.40
2018-07-25T12:58:09.687Z,31.50
2018-07-25T13:00:38.801Z,31.60
2018-07-25T13:03:07.864Z,31.60
2018-07-25T13:05:38.365Z,31.60
2018-07-25T13:08:07.056Z,31.70
2018-07-25T13:10:35.561Z,31.60
2018-07-25T13:13:04.058Z,31.60
2018-07-25T13:15:32.537Z,31.60
2018-07-25T13:18:00.819Z,31.60
2018-07-25T13:20:29.205Z,31.60
2018-07-25T13:22:58.444Z,31.60
2018-07-25T13:25:28.919Z,31.70
2018-07-25T13:27:57.300Z,31.60
2018-07-25T13:30:25.679Z,31.50
2018-07-25T13:32:54.018Z,31.50
2018-07-25T13:37:53.924Z,31.50
2018-07-25T13:40:22.377Z,31.40
2018-07-25T13:42:54.012Z,31.30
2018-07-25T13:45:22.502Z,31.30
2018-07-25T13:47:52.573Z,31.30
2018-07-25T13:50:21.403Z,31.40
2018-07-25T13:52:49.891Z,31.30
2018-07-25T13:55:18.251Z,31.40
2018-07-25T14:00:14.795Z,31.40
2018-07-25T14:02:43.184Z,31.40
2018-07-25T14:05:11.625Z,31.30
2018-07-25T14:07:41.871Z,31.30
2018-07-25T14:10:10.154Z,31.20
2018-07-25T14:12:38.519Z,31.10
2018-07-25T14:15:06.902Z,31.10
2018-07-25T14:17:35.282Z,31.10
2018-07-25T14:20:09.587Z,31.10
2018-07-25T14:22:37.950Z,31.10
2018-07-25T14:25:06.502Z,31.10
2018-07-25T14:27:34.988Z,31.10
2018-07-25T14:30:03.356Z,30.90
2018-07-25T14:32:31.920Z,31.00
2018-07-25T14:35:00.249Z,31.00
2018-07-25T14:37:31.532Z,31.20
2018-07-25T14:40:00.007Z,31.20
2018-07-25T14:42:30.280Z,31.30
2018-07-25T14:47:28.215Z,31.30
2018-07-25T14:49:56.601Z,31.20
2018-07-25T14:52:24.988Z,31.10
2018-07-25T14:54:53.355Z,31.20
2018-07-25T14:57:23.040Z,31.20
2018-07-25T14:59:51.463Z,31.20
2018-07-25T15:07:21.464Z,31.00
2018-07-25T15:09:51.533Z,31.00
2018-07-25T15:12:25.009Z,31.00
2018-07-25T15:14:53.374Z,31.00
2018-07-25T15:17:28.540Z,30.90
2018-07-25T15:22:25.304Z,30.80
2018-07-25T15:24:53.747Z,30.80
2018-07-25T15:27:22.276Z,30.80
2018-07-25T15:29:51.154Z,31.00
2018-07-25T15:34:49.076Z,31.00
2018-07-25T15:37:17.633Z,31.00
2018-07-25T15:39:47.227Z,30.90
2018-07-25T15:42:15.817Z,30.90
2018-07-25T15:44:46.167Z,31.10
2018-07-25T15:47:14.712Z,31.10
2018-07-25T15:49:44.895Z,31.10
2018-07-25T15:52:13.390Z,31.40
2018-07-25T15:54:53.243Z,31.40
2018-07-25T15:57:21.783Z,31.20
2018-07-25T15:59:50.320Z,31.10
2018-07-25T16:02:19.145Z,31.00
2018-07-25T16:07:19.077Z,30.50
2018-07-25T16:09:50.524Z,30.20
2018-07-25T16:12:22.746Z,29.90
2018-07-25T16:14:53.451Z,29.80
2018-07-25T16:17:24.063Z,29.50
2018-07-25T16:25:00.925Z,29.50
2018-07-25T16:27:32.119Z,29.40
2018-07-25T16:30:00.731Z,29.30
2018-07-25T16:32:29.243Z,29.20
2018-07-25T16:34:57.620Z,29.30
2018-07-25T16:37:26.068Z,28.90
2018-07-25T16:39:54.514Z,28.90
2018-07-25T16:42:22.893Z,28.90
2018-07-25T16:44:51.114Z,29.00
2018-07-25T16:47:21.927Z,29.00
2018-07-25T16:49:50.467Z,28.80
2018-07-25T16:52:26.942Z,28.90
2018-07-25T16:57:26.024Z,28.90
2018-07-25T16:59:58.467Z,28.80
2018-07-25T17:02:27.630Z,28.70
2018-07-25T17:04:57.157Z,28.90
2018-07-25T17:09:59.217Z,29.20
2018-07-25T17:15:01.341Z,29.20
2018-07-25T17:17:32.539Z,29.20
2018-07-25T17:20:05.652Z,29.20
2018-07-25T17:22:36.920Z,29.20
2018-07-25T17:25:10.471Z,29.10
2018-07-25T17:27:39.441Z,29.10
2018-07-25T17:30:08.590Z,29.00
2018-07-25T17:32:38.132Z,29.00
2018-07-25T17:35:09.617Z,28.90
2018-07-25T17:37:41.956Z,28.90
2018-07-25T17:40:10.460Z,28.80
2018-07-25T17:42:44.317Z,28.80
2018-07-25T17:50:10.721Z,28.70
2018-07-25T17:52:39.907Z,28.50
2018-07-25T17:55:08.395Z,28.40
2018-07-25T17:57:36.886Z,28.40
2018-07-25T18:00:07.916Z,28.30
2018-07-25T18:02:43.889Z,28.30
2018-07-25T18:05:13.407Z,28.20
2018-07-25T18:07:43.409Z,28.20
2018-07-25T18:12:41.174Z,28.20
2018-07-25T18:15:10.196Z,28.20
2018-07-25T18:20:07.137Z,28.10
2018-07-25T18:22:37.163Z,28.00
2018-07-25T18:25:06.110Z,28.00
2018-07-25T18:27:34.779Z,27.90
2018-07-25T18:30:03.634Z,27.60
2018-07-25T18:32:32.049Z,27.50
2018-07-25T18:35:00.489Z,27.50
2018-07-25T18:37:33.704Z,27.10
2018-07-25T18:40:02.233Z,26.90
2018-07-25T18:42:32.439Z,26.90
2018-07-25T18:45:00.879Z,26.70
2018-07-25T18:47:30.712Z,26.50
2018-07-25T18:49:59.126Z,26.50
2018-07-25T18:52:27.675Z,26.60
2018-07-25T18:55:01.281Z,26.60
2018-07-25T18:57:29.814Z,25.80
2018-07-25T18:59:58.338Z,26.50
2018-07-25T19:02:27.120Z,26.60
2018-07-25T19:04:57.439Z,26.50
2018-07-25T19:07:29.952Z,26.30
2018-07-25T19:09:58.328Z,26.20
2018-07-25T19:12:26.754Z,26.20
2018-07-25T19:15:01.729Z,26.20
2018-07-25T19:17:32.591Z,26.10
2018-07-25T19:20:03.704Z,25.80
2018-07-25T19:22:32.445Z,25.70
2018-07-25T19:25:00.957Z,25.70
2018-07-25T19:27:30.575Z,25.50
2018-07-25T19:29:59.108Z,25.50
2018-07-25T19:32:27.527Z,25.20
2018-07-25T19:35:00.234Z,25.20
2018-07-25T19:37:28.850Z,25.20
2018-07-25T19:40:01.220Z,25.20
2018-07-25T19:42:29.918Z,25.00
2018-07-25T19:45:00.594Z,24.90
2018-07-25T19:47:32.633Z,24.70
2018-07-25T19:50:04.441Z,24.50
2018-07-25T19:52:32.876Z,24.50
2018-07-25T19:55:03.938Z,24.50
2018-07-25T19:57:39.394Z,24.60
2018-07-25T20:02:36.490Z,24.70
2018-07-25T20:07:34.953Z,24.70
2018-07-25T20:10:04.520Z,24.60
2018-07-25T20:12:33.054Z,24.60
2018-07-25T20:15:06.960Z,24.60
2018-07-25T20:17:36.363Z,24.50
2018-07-25T20:20:07.401Z,24.60
2018-07-25T20:22:35.773Z,24.70
2018-07-25T20:25:04.652Z,24.80
2018-07-25T20:27:36.752Z,24.60
2018-07-25T20:30:10.772Z,24.50
2018-07-25T20:32:39.434Z,24.40
2018-07-25T20:35:07.855Z,24.30
2018-07-25T20:37:37.662Z,24.30
2018-07-25T20:42:34.688Z,24.10
2018-07-25T20:45:03.279Z,24.10
2018-07-25T20:47:32.275Z,24.10
2018-07-25T20:50:01.546Z,24.20
2018-07-25T20:52:30.318Z,24.20
2018-07-25T20:55:01.806Z,24.20
2018-07-25T20:57:36.109Z,24.30
2018-07-25T21:00:04.639Z,24.20
2018-07-25T21:02:33.172Z,24.20
2018-07-25T21:05:06.181Z,24.20
2018-07-25T21:10:07.701Z,24.00
2018-07-25T21:20:26.207Z,23.70
2018-07-25T21:22:55.099Z,23.60
2018-07-25T21:25:26.954Z,23.60
2018-07-25T21:28:03.600Z,23.60
2018-07-25T21:30:35.866Z,23.70
2018-07-25T21:35:46.881Z,23.70
2018-07-25T21:38:18.578Z,23.50
2018-07-25T21:40:54.687Z,23.90
2018-07-25T21:43:26.523Z,23.80
2018-07-25T21:45:59.237Z,23.90
2018-07-25T21:48:27.822Z,23.90
2018-07-25T21:50:59.517Z,23.90
2018-07-25T21:53:31.905Z,23.80
2018-07-25T21:56:01.865Z,23.80
2018-07-25T21:58:31.074Z,23.80
2018-07-25T22:01:05.838Z,23.80
2018-07-25T22:03:34.119Z,23.60
2018-07-25T22:06:02.709Z,23.60
2018-07-25T22:08:36.307Z,23.50
2018-07-25T22:11:08.316Z,23.50
2018-07-25T22:13:36.775Z,23.20
2018-07-25T22:16:12.107Z,23.30
2018-07-25T22:18:46.028Z,23.20
2018-07-25T22:21:18.417Z,23.10
2018-07-25T22:23:49.970Z,23.00
2018-07-25T22:26:54.126Z,23.00
2018-07-25T22:29:26.310Z,22.70
2018-07-25T22:31:56.807Z,22.70
2018-07-25T22:37:06.063Z,22.40
2018-07-25T22:42:30.850Z,22.10
2018-07-25T22:55:51.227Z,21.60
2018-07-25T23:04:03.696Z,21.90
2018-07-25T23:11:07.068Z,21.80
2018-07-25T23:39:52.010Z,21.30
2018-07-25T23:42:39.859Z,21.30
2018-07-25T23:50:34.735Z,21.20
2018-07-25T23:53:33.928Z,21.20
